sensor_id;sensor_type;location;lat;lon;timestamp;pressure;altitude;pressure_sealevel;temperature;humidity
5877;BME280;2964;42.144;24.730;2023-04-25T00:01:01;144830.47;;;13.09;100.00
5877;BME280;2964;42.144;24.730;2023-04-25T00:03:27;144761.28;;;12.81;100.00
5877;BME280;2964;42.144;24.730;2023-04-25T00:05:54;144810.38;;;13.01;100.00
5877;BME280;2964;42.144;24.730;2023-04-25T00:08:22;144786.41;;;12.91;100.00
5877;BME280;2964;42.144;24.730;2023-04-25T00:10:50;144816.63;;;13.03;100.00
5877;BME280;2964;42.144;24.730;2023-04-25T00:13:17;144836.81;;;13.11;100.00
5877;BME280;2964;42.144;24.730;2023-04-25T00:15:44;144724.78;;;12.66;100.00
5877;BME280;2964;42.144;24.730;2023-04-25T00:18:11;144709.66;;;12.60;100.00
5877;BME280;2964;42.144;24.730;2023-04-25T00:20:38;144758.75;;;12.80;100.00
5877;BME280;2964;42.144;24.730;2023-04-25T00:23:05;144760.03;;;12.80;100.00
5877;BME280;2964;42.144;24.730;2023-04-25T00:25:31;144767.56;;;12.83;100.00
5877;BME280;2964;42.144;24.730;2023-04-25T00:27:59;144765.06;;;12.82;100.00
5877;BME280;2964;42.144;24.730;2023-04-25T00:30:26;144747.44;;;12.75;100.00
5877;BME280;2964;42.144;24.730;2023-04-25T00:32:53;144794.00;;;12.94;100.00
5877;BME280;2964;42.144;24.730;2023-04-25T00:35:19;144815.41;;;13.03;100.00
5877;BME280;2964;42.144;24.730;2023-04-25T00:37:46;144828.00;;;13.08;100.00
5877;BME280;2964;42.144;24.730;2023-04-25T00:40:13;144816.63;;;13.03;100.00
5877;BME280;2964;42.144;24.730;2023-04-25T00:42:40;144786.41;;;12.91;100.00
5877;BME280;2964;42.144;24.730;2023-04-25T00:45:13;144752.47;;;12.77;100.00
5877;BME280;2964;42.144;24.730;2023-04-25T00:47:41;144780.16;;;12.88;100.00
5877;BME280;2964;42.144;24.730;2023-04-25T00:50:08;144757.50;;;12.79;100.00
5877;BME280;2964;42.144;24.730;2023-04-25T00:52:36;144736.09;;;12.70;100.00
5877;BME280;2964;42.144;24.730;2023-04-25T00:55:04;144749.94;;;12.76;100.00
5877;BME280;2964;42.144;24.730;2023-04-25T00:57:31;144772.59;;;12.85;100.00
5877;BME280;2964;42.144;24.730;2023-04-25T00:59:58;144780.16;;;12.88;100.00
5877;BME280;2964;42.144;24.730;2023-04-25T01:02:27;144755.00;;;12.78;100.00
5877;BME280;2964;42.144;24.730;2023-04-25T01:04:53;144727.28;;;12.67;100.00
5877;BME280;2964;42.144;24.730;2023-04-25T01:07:20;144732.38;;;12.69;100.00
5877;BME280;2964;42.144;24.730;2023-04-25T01:09:47;144742.41;;;12.73;100.00
5877;BME280;2964;42.144;24.730;2023-04-25T01:12:14;144719.78;;;12.64;100.00
5877;BME280;2964;42.144;24.730;2023-04-25T01:14:41;144717.22;;;12.63;100.00
5877;BME280;2964;42.144;24.730;2023-04-25T01:17:08;144712.19;;;12.61;100.00
5877;BME280;2964;42.144;24.730;2023-04-25T01:19:36;144732.38;;;12.69;100.00
5877;BME280;2964;42.144;24.730;2023-04-25T01:22:04;144722.25;;;12.65;100.00
5877;BME280;2964;42.144;24.730;2023-04-25T01:24:32;144689.56;;;12.51;100.00
5877;BME280;2964;42.144;24.730;2023-04-25T01:27:00;144702.16;;;12.57;100.00
5877;BME280;2964;42.144;24.730;2023-04-25T01:29:28;144676.97;;;12.46;100.00
5877;BME280;2964;42.144;24.730;2023-04-25T01:31:55;144709.66;;;12.60;100.00
5877;BME280;2964;42.144;24.730;2023-04-25T01:34:23;144752.47;;;12.77;100.00
5877;BME280;2964;42.144;24.730;2023-04-25T01:36:51;144747.44;;;12.75;100.00
5877;BME280;2964;42.144;24.730;2023-04-25T01:39:20;144783.94;;;12.90;100.00
5877;BME280;2964;42.144;24.730;2023-04-25T01:41:47;144797.78;;;12.96;100.00
5877;BME280;2964;42.144;24.730;2023-04-25T01:44:15;144770.09;;;12.84;100.00
5877;BME280;2964;42.144;24.730;2023-04-25T01:46:42;144807.81;;;13.00;100.00
5877;BME280;2964;42.144;24.730;2023-04-25T01:49:08;144782.69;;;12.89;100.00
5877;BME280;2964;42.144;24.730;2023-04-25T01:51:35;144734.84;;;12.70;100.00
5877;BME280;2964;42.144;24.730;2023-04-25T01:54:02;144727.28;;;12.67;100.00
5877;BME280;2964;42.144;24.730;2023-04-25T01:56:31;144756.25;;;12.79;100.00
5877;BME280;2964;42.144;24.730;2023-04-25T01:58:59;144788.97;;;12.92;100.00
5877;BME280;2964;42.144;24.730;2023-04-25T02:01:25;144788.97;;;12.92;100.00
5877;BME280;2964;42.144;24.730;2023-04-25T02:03:52;144795.22;;;12.94;100.00
5877;BME280;2964;42.144;24.730;2023-04-25T02:06:19;144810.38;;;13.01;100.00
5877;BME280;2964;42.144;24.730;2023-04-25T02:08:45;144722.25;;;12.65;100.00
5877;BME280;2964;42.144;24.730;2023-04-25T02:11:12;144719.78;;;12.64;100.00
5877;BME280;2964;42.144;24.730;2023-04-25T02:13:40;144719.78;;;12.64;100.00
5877;BME280;2964;42.144;24.730;2023-04-25T02:16:07;144699.63;;;12.55;100.00
5877;BME280;2964;42.144;24.730;2023-04-25T02:18:33;144697.13;;;12.54;100.00
5877;BME280;2964;42.144;24.730;2023-04-25T02:21:02;144689.56;;;12.51;100.00
5877;BME280;2964;42.144;24.730;2023-04-25T02:23:29;144671.94;;;12.44;100.00
5877;BME280;2964;42.144;24.730;2023-04-25T02:25:56;144661.88;;;12.40;100.00
5877;BME280;2964;42.144;24.730;2023-04-25T02:28:23;144669.47;;;12.43;100.00
5877;BME280;2964;42.144;24.730;2023-04-25T02:30:52;144666.91;;;12.42;100.00
5877;BME280;2964;42.144;24.730;2023-04-25T02:33:19;144700.91;;;12.56;100.00
5877;BME280;2964;42.144;24.730;2023-04-25T02:35:46;144710.97;;;12.60;100.00
5877;BME280;2964;42.144;24.730;2023-04-25T02:38:13;144692.09;;;12.52;100.00
5877;BME280;2964;42.144;24.730;2023-04-25T02:40:40;144760.03;;;12.80;100.00
5877;BME280;2964;42.144;24.730;2023-04-25T02:43:07;144814.16;;;13.02;100.00
5877;BME280;2964;42.144;24.730;2023-04-25T02:45:33;144814.16;;;13.02;100.00
5877;BME280;2964;42.144;24.730;2023-04-25T02:48:02;144802.81;;;12.98;100.00
5877;BME280;2964;42.144;24.730;2023-04-25T02:50:28;144805.34;;;12.99;100.00
5877;BME280;2964;42.144;24.730;2023-04-25T02:52:55;144786.41;;;12.91;100.00
5877;BME280;2964;42.144;24.730;2023-04-25T02:55:22;144739.88;;;12.72;100.00
5877;BME280;2964;42.144;24.730;2023-04-25T02:57:48;144722.25;;;12.65;100.00
5877;BME280;2964;42.144;24.730;2023-04-25T03:00:15;144781.41;;;12.89;100.00
5877;BME280;2964;42.144;24.730;2023-04-25T03:02:42;144766.31;;;12.83;100.00
5877;BME280;2964;42.144;24.730;2023-04-25T03:05:10;144664.38;;;12.41;100.00
5877;BME280;2964;42.144;24.730;2023-04-25T03:07:37;144572.59;;;12.04;100.00
5877;BME280;2964;42.144;24.730;2023-04-25T03:10:05;144596.47;;;12.13;100.00
5877;BME280;2964;42.144;24.730;2023-04-25T03:12:32;144626.66;;;12.26;100.00
5877;BME280;2964;42.144;24.730;2023-04-25T03:14:59;144620.41;;;12.23;100.00
5877;BME280;2964;42.144;24.730;2023-04-25T03:17:26;144586.41;;;12.09;100.00
5877;BME280;2964;42.144;24.730;2023-04-25T03:19:52;144570.09;;;12.03;100.00
5877;BME280;2964;42.144;24.730;2023-04-25T03:22:21;144607.81;;;12.18;100.00
5877;BME280;2964;42.144;24.730;2023-04-25T03:24:47;144592.72;;;12.12;100.00
5877;BME280;2964;42.144;24.730;2023-04-25T03:27:14;144593.97;;;12.12;100.00
5877;BME280;2964;42.144;24.730;2023-04-25T03:29:41;144596.47;;;12.13;100.00
5877;BME280;2964;42.144;24.730;2023-04-25T03:32:07;144583.91;;;12.08;100.00
5877;BME280;2964;42.144;24.730;2023-04-25T03:34:34;144624.16;;;12.25;100.00
5877;BME280;2964;42.144;24.730;2023-04-25T03:37:01;144597.75;;;12.14;100.00
5877;BME280;2964;42.144;24.730;2023-04-25T03:39:29;144592.72;;;12.12;100.00
5877;BME280;2964;42.144;24.730;2023-04-25T03:41:56;144604.03;;;12.16;100.00
5877;BME280;2964;42.144;24.730;2023-04-25T03:44:22;144596.47;;;12.13;100.00
5877;BME280;2964;42.144;24.730;2023-04-25T03:46:50;144583.91;;;12.08;100.00
5877;BME280;2964;42.144;24.730;2023-04-25T03:49:17;144570.09;;;12.03;100.00
5877;BME280;2964;42.144;24.730;2023-04-25T03:51:43;144578.91;;;12.06;100.00
5877;BME280;2964;42.144;24.730;2023-04-25T03:54:10;144581.38;;;12.07;100.00
5877;BME280;2964;42.144;24.730;2023-04-25T03:56:38;144582.63;;;12.08;100.00
5877;BME280;2964;42.144;24.730;2023-04-25T03:59:05;144588.94;;;12.10;100.00
5877;BME280;2964;42.144;24.730;2023-04-25T04:01:32;144607.81;;;12.18;100.00
5877;BME280;2964;42.144;24.730;2023-04-25T04:03:59;144665.66;;;12.42;100.00
5877;BME280;2964;42.144;24.730;2023-04-25T04:06:26;144609.06;;;12.19;100.00
5877;BME280;2964;42.144;24.730;2023-04-25T04:08:52;144604.03;;;12.16;100.00
5877;BME280;2964;42.144;24.730;2023-04-25T04:11:19;144625.41;;;12.25;100.00
5877;BME280;2964;42.144;24.730;2023-04-25T04:13:47;144615.38;;;12.21;100.00
5877;BME280;2964;42.144;24.730;2023-04-25T04:16:14;144632.97;;;12.28;100.00
5877;BME280;2964;42.144;24.730;2023-04-25T04:18:41;144666.91;;;12.42;100.00
5877;BME280;2964;42.144;24.730;2023-04-25T04:21:08;144699.63;;;12.55;100.00
5877;BME280;2964;42.144;24.730;2023-04-25T04:23:34;144707.19;;;12.59;100.00
5877;BME280;2964;42.144;24.730;2023-04-25T04:26:01;144736.09;;;12.70;100.00
5877;BME280;2964;42.144;24.730;2023-04-25T04:28:28;144752.47;;;12.77;100.00
5877;BME280;2964;42.144;24.730;2023-04-25T04:30:56;144786.41;;;12.91;100.00
5877;BME280;2964;42.144;24.730;2023-04-25T04:33:23;144802.81;;;12.98;100.00
5877;BME280;2964;42.144;24.730;2023-04-25T04:35:50;144825.44;;;13.07;100.00
5877;BME280;2964;42.144;24.730;2023-04-25T04:38:18;144872.00;;;13.26;100.00
5877;BME280;2964;42.144;24.730;2023-04-25T04:40:46;144877.09;;;13.28;100.00
5877;BME280;2964;42.144;24.730;2023-04-25T04:43:13;144906.06;;;13.40;100.00
5877;BME280;2964;42.144;24.730;2023-04-25T04:45:42;144916.13;;;13.44;100.00
5877;BME280;2964;42.144;24.730;2023-04-25T04:48:11;144898.50;;;13.37;100.00
5877;BME280;2964;42.144;24.730;2023-04-25T04:50:39;144888.44;;;13.32;100.00
5877;BME280;2964;42.144;24.730;2023-04-25T04:53:07;144884.66;;;13.31;100.00
5877;BME280;2964;42.144;24.730;2023-04-25T04:55:33;144850.66;;;13.17;100.00
5877;BME280;2964;42.144;24.730;2023-04-25T04:58:00;144883.41;;;13.30;100.00
5877;BME280;2964;42.144;24.730;2023-04-25T05:00:27;144884.66;;;13.31;100.00
5877;BME280;2964;42.144;24.730;2023-04-25T05:02:54;144870.75;;;13.25;100.00
5877;BME280;2964;42.144;24.730;2023-04-25T05:05:23;144893.47;;;13.35;100.00
5877;BME280;2964;42.144;24.730;2023-04-25T05:07:50;144883.41;;;13.30;100.00
5877;BME280;2964;42.144;24.730;2023-04-25T05:10:17;144890.97;;;13.34;100.00
5877;BME280;2964;42.144;24.730;2023-04-25T05:12:43;144880.81;;;13.29;100.00
5877;BME280;2964;42.144;24.730;2023-04-25T05:15:10;144902.28;;;13.38;100.00
5877;BME280;2964;42.144;24.730;2023-04-25T05:17:37;144936.31;;;13.52;100.00
5877;BME280;2964;42.144;24.730;2023-04-25T05:20:05;144928.72;;;13.49;100.00
5877;BME280;2964;42.144;24.730;2023-04-25T05:22:33;144888.44;;;13.32;100.00
5877;BME280;2964;42.144;24.730;2023-04-25T05:25:00;144951.38;;;13.58;100.00
5877;BME280;2964;42.144;24.730;2023-04-25T05:27:27;144974.06;;;13.67;100.00
5877;BME280;2964;42.144;24.730;2023-04-25T05:29:54;145044.59;;;13.96;100.00
5877;BME280;2964;42.144;24.730;2023-04-25T05:32:21;145102.50;;;14.20;100.00
5877;BME280;2964;42.144;24.730;2023-04-25T05:34:47;145117.63;;;14.26;100.00
5877;BME280;2964;42.144;24.730;2023-04-25T05:37:14;145150.38;;;14.39;100.00
5877;BME280;2964;42.144;24.730;2023-04-25T05:39:42;145195.78;;;14.58;100.00
5877;BME280;2964;42.144;24.730;2023-04-25T05:42:09;145251.22;;;14.80;100.00
5877;BME280;2964;42.144;24.730;2023-04-25T05:44:36;145270.13;;;14.88;100.00
5877;BME280;2964;42.144;24.730;2023-04-25T05:47:02;145318.03;;;15.08;100.00
5877;BME280;2964;42.144;24.730;2023-04-25T05:49:30;145241.16;;;14.76;100.00
5877;BME280;2964;42.144;24.730;2023-04-25T05:51:56;145769.72;;;16.91;100.00
5877;BME280;2964;42.144;24.730;2023-04-25T05:54:23;145869.47;;;17.32;99.52
5877;BME280;2964;42.144;24.730;2023-04-25T05:56:51;145927.50;;;17.55;97.34
5877;BME280;2964;42.144;24.730;2023-04-25T05:59:18;146350.94;;;19.27;90.56
5877;BME280;2964;42.144;24.730;2023-04-25T06:01:45;146615.34;;;20.35;85.65
5877;BME280;2964;42.144;24.730;2023-04-25T06:04:11;146515.41;;;19.94;82.73
5877;BME280;2964;42.144;24.730;2023-04-25T06:06:38;146529.31;;;20.00;84.52
5877;BME280;2964;42.144;24.730;2023-04-25T06:09:05;146477.41;;;19.79;85.48
5877;BME280;2964;42.144;24.730;2023-04-25T06:11:32;146225.72;;;18.77;87.38
5877;BME280;2964;42.144;24.730;2023-04-25T06:14:00;146272.53;;;18.96;89.78
5877;BME280;2964;42.144;24.730;2023-04-25T06:16:26;146658.34;;;20.52;84.04
5877;BME280;2964;42.144;24.730;2023-04-25T06:18:53;146535.63;;;20.02;83.52
5877;BME280;2964;42.144;24.730;2023-04-25T06:21:20;146362.31;;;19.32;85.25
5877;BME280;2964;42.144;24.730;2023-04-25T06:23:46;146095.53;;;18.24;88.14
5877;BME280;2964;42.144;24.730;2023-04-25T06:26:13;146105.69;;;18.28;90.90
5877;BME280;2964;42.144;24.730;2023-04-25T06:28:40;146369.91;;;19.35;87.70
5877;BME280;2964;42.144;24.730;2023-04-25T06:31:08;146795.09;;;21.08;80.17
5877;BME280;2964;42.144;24.730;2023-04-25T06:33:34;146749.53;;;20.89;76.90
5877;BME280;2964;42.144;24.730;2023-04-25T06:36:01;146356.00;;;19.29;83.61
5877;BME280;2964;42.144;24.730;2023-04-25T06:38:28;146306.69;;;19.09;83.91
5877;BME280;2964;42.144;24.730;2023-04-25T06:40:55;146270.03;;;18.95;86.02
5877;BME280;2964;42.144;24.730;2023-04-25T06:43:21;146767.25;;;20.96;79.92
5877;BME280;2964;42.144;24.730;2023-04-25T06:45:48;147166.34;;;22.58;73.94
5877;BME280;2964;42.144;24.730;2023-04-25T06:48:20;147837.56;;;25.30;66.82
5877;BME280;2964;42.144;24.730;2023-04-25T06:50:49;147708.06;;;24.77;63.99
5877;BME280;2964;42.144;24.730;2023-04-25T06:53:15;147751.19;;;24.95;62.45
5877;BME280;2964;42.144;24.730;2023-04-25T06:55:42;146741.97;;;20.86;71.64
5877;BME280;2964;42.144;24.730;2023-04-25T06:58:09;146524.25;;;19.98;76.66
5877;BME280;2964;42.144;24.730;2023-04-25T07:00:35;146509.03;;;19.92;78.36
5877;BME280;2964;42.144;24.730;2023-04-25T07:03:02;146315.53;;;19.13;80.90
5877;BME280;2964;42.144;24.730;2023-04-25T07:05:30;146299.09;;;19.06;80.58
5877;BME280;2964;42.144;24.730;2023-04-25T07:07:57;146519.19;;;19.96;80.08
5877;BME280;2964;42.144;24.730;2023-04-25T07:10:24;146619.16;;;20.36;75.29
5877;BME280;2964;42.144;24.730;2023-04-25T07:12:51;146652.03;;;20.50;77.59
5877;BME280;2964;42.144;24.730;2023-04-25T07:15:17;146939.53;;;21.66;73.55
5877;BME280;2964;42.144;24.730;2023-04-25T07:17:44;147380.63;;;23.45;64.36
5877;BME280;2964;42.144;24.730;2023-04-25T07:20:11;146916.72;;;21.57;69.59
5877;BME280;2964;42.144;24.730;2023-04-25T07:22:39;147869.31;;;25.42;60.25
5877;BME280;2964;42.144;24.730;2023-04-25T07:25:06;147831.25;;;25.27;60.72
5877;BME280;2964;42.144;24.730;2023-04-25T07:27:33;148101.78;;;26.36;58.29
5877;BME280;2964;42.144;24.730;2023-04-25T07:30:00;147413.59;;;23.58;62.80
5877;BME280;2964;42.144;24.730;2023-04-25T07:32:27;147692.78;;;24.71;62.12
5877;BME280;2964;42.144;24.730;2023-04-25T07:34:54;147906.13;;;25.57;59.09
5877;BME280;2964;42.144;24.730;2023-04-25T07:37:20;147555.72;;;24.16;61.61
5877;BME280;2964;42.144;24.730;2023-04-25T07:39:48;147215.78;;;22.78;64.34
5877;BME280;2964;42.144;24.730;2023-04-25T07:42:15;146987.66;;;21.86;66.50
5877;BME280;2964;42.144;24.730;2023-04-25T07:44:42;147114.38;;;22.37;65.81
5877;BME280;2964;42.144;24.730;2023-04-25T07:47:09;146845.75;;;21.28;68.54
5877;BME280;2964;42.144;24.730;2023-04-25T07:49:37;146573.59;;;20.18;72.44
5877;BME280;2964;42.144;24.730;2023-04-25T07:52:04;146729.28;;;20.81;69.70
5877;BME280;2964;42.144;24.730;2023-04-25T07:54:32;146978.81;;;21.82;69.79
5877;BME280;2964;42.144;24.730;2023-04-25T07:57:00;147388.25;;;23.48;66.54
5877;BME280;2964;42.144;24.730;2023-04-25T07:59:27;147581.09;;;24.26;60.45
5877;BME280;2964;42.144;24.730;2023-04-25T08:01:54;147771.53;;;25.03;59.26
5877;BME280;2964;42.144;24.730;2023-04-25T08:04:22;147868.06;;;25.42;56.03
5877;BME280;2964;42.144;24.730;2023-04-25T08:06:49;148518.88;;;28.05;51.23
5877;BME280;2964;42.144;24.730;2023-04-25T08:09:16;147972.19;;;25.84;54.32
5877;BME280;2964;42.144;24.730;2023-04-25T08:11:42;148033.19;;;26.09;52.88
5877;BME280;2964;42.144;24.730;2023-04-25T08:14:11;148579.94;;;28.29;49.28
5877;BME280;2964;42.144;24.730;2023-04-25T08:16:37;149169.50;;;30.67;38.59
5877;BME280;2964;42.144;24.730;2023-04-25T08:19:04;149089.28;;;30.35;38.73
5877;BME280;2964;42.144;24.730;2023-04-25T08:21:31;148905.81;;;29.61;40.58
5877;BME280;2964;42.144;24.730;2023-04-25T08:23:58;148904.56;;;29.60;40.58
5877;BME280;2964;42.144;24.730;2023-04-25T08:26:25;149546.91;;;32.19;36.02
5877;BME280;2964;42.144;24.730;2023-04-25T08:28:52;149124.94;;;30.49;35.70
5877;BME280;2964;42.144;24.730;2023-04-25T08:31:20;148432.34;;;27.70;40.84
5877;BME280;2964;42.144;24.730;2023-04-25T08:33:47;148716.09;;;28.84;39.22
5877;BME280;2964;42.144;24.730;2023-04-25T08:36:14;148279.75;;;27.08;41.52
5877;BME280;2964;42.144;24.730;2023-04-25T08:38:41;147735.97;;;24.89;46.92
5877;BME280;2964;42.144;24.730;2023-04-25T08:41:08;147266.50;;;22.99;52.50
5877;BME280;2964;42.144;24.730;2023-04-25T08:43:37;147189.16;;;22.67;53.04
5877;BME280;2964;42.144;24.730;2023-04-25T08:46:04;147061.13;;;22.15;56.52
5877;BME280;2964;42.144;24.730;2023-04-25T08:48:33;147014.22;;;21.96;57.48
5877;BME280;2964;42.144;24.730;2023-04-25T08:51:02;146905.28;;;21.52;58.97
5877;BME280;2964;42.144;24.730;2023-04-25T08:53:30;146587.50;;;20.23;65.48
5877;BME280;2964;42.144;24.730;2023-04-25T08:55:58;146366.09;;;19.34;70.12
5877;BME280;2964;42.144;24.730;2023-04-25T08:58:27;146396.47;;;19.46;73.59
5877;BME280;2964;42.144;24.730;2023-04-25T09:00:54;146419.22;;;19.55;71.74
5877;BME280;2964;42.144;24.730;2023-04-25T09:03:21;146366.09;;;19.34;73.50
5877;BME280;2964;42.144;24.730;2023-04-25T09:05:49;146352.19;;;19.28;73.03
5877;BME280;2964;42.144;24.730;2023-04-25T09:08:15;146296.56;;;19.05;74.96
5877;BME280;2964;42.144;24.730;2023-04-25T09:10:42;146392.66;;;19.44;75.08
5877;BME280;2964;42.144;24.730;2023-04-25T09:13:10;146373.69;;;19.37;78.29
5877;BME280;2964;42.144;24.730;2023-04-25T09:15:47;146374.97;;;19.37;78.20
5877;BME280;2964;42.144;24.730;2023-04-25T09:18:22;146106.94;;;18.28;77.03
5877;BME280;2964;42.144;24.730;2023-04-25T09:20:51;146062.72;;;18.10;80.76
5877;BME280;2964;42.144;24.730;2023-04-25T09:23:19;146214.38;;;18.72;80.00
5877;BME280;2964;42.144;24.730;2023-04-25T09:25:47;146224.47;;;18.76;75.37
5877;BME280;2964;42.144;24.730;2023-04-25T09:28:14;146321.84;;;19.16;74.55
5877;BME280;2964;42.144;24.730;2023-04-25T09:30:41;146476.16;;;19.78;74.79
5877;BME280;2964;42.144;24.730;2023-04-25T09:33:09;146690.03;;;20.65;70.85
5877;BME280;2964;42.144;24.730;2023-04-25T09:35:36;147081.38;;;22.24;63.42
5877;BME280;2964;42.144;24.730;2023-04-25T09:38:10;147234.78;;;22.86;60.63
5877;BME280;2964;42.144;24.730;2023-04-25T09:40:41;147713.13;;;24.79;54.28
5877;BME280;2964;42.144;24.730;2023-04-25T09:43:18;148198.41;;;26.75;47.71
5877;BME280;2964;42.144;24.730;2023-04-25T09:45:45;148208.56;;;26.80;47.40
5877;BME280;2964;42.144;24.730;2023-04-25T09:48:17;148686.84;;;28.73;42.78
5877;BME280;2964;42.144;24.730;2023-04-25T09:50:43;148228.91;;;26.88;45.64
5877;BME280;2964;42.144;24.730;2023-04-25T09:53:13;148137.38;;;26.51;47.93
5877;BME280;2964;42.144;24.730;2023-04-25T09:55:40;148328.06;;;27.28;45.69
5877;BME280;2964;42.144;24.730;2023-04-25T09:58:10;148141.19;;;26.52;47.63
5877;BME280;2964;42.144;24.730;2023-04-25T10:00:37;148167.88;;;26.63;50.04
5877;BME280;2964;42.144;24.730;2023-04-25T10:03:05;148615.53;;;28.44;43.43
5877;BME280;2964;42.144;24.730;2023-04-25T10:05:34;147862.97;;;25.40;47.48
5877;BME280;2964;42.144;24.730;2023-04-25T10:08:03;147614.06;;;24.39;49.96
5877;BME280;2964;42.144;24.730;2023-04-25T10:10:32;147431.38;;;23.65;54.95
5877;BME280;2964;42.144;24.730;2023-04-25T10:13:03;147374.28;;;23.42;54.15
5877;BME280;2964;42.144;24.730;2023-04-25T10:15:32;147395.84;;;23.51;54.15
5877;BME280;2964;42.144;24.730;2023-04-25T10:18:00;147071.25;;;22.20;54.51
5877;BME280;2964;42.144;24.730;2023-04-25T10:20:28;146610.28;;;20.33;58.56
5877;BME280;2964;42.144;24.730;2023-04-25T10:23:00;146790.03;;;21.06;59.49
5877;BME280;2964;42.144;24.730;2023-04-25T10:25:31;146762.19;;;20.94;57.23
5877;BME280;2964;42.144;24.730;2023-04-25T10:27:59;146678.66;;;20.60;59.39
5877;BME280;2964;42.144;24.730;2023-04-25T10:30:27;146619.16;;;20.36;60.55
5877;BME280;2964;42.144;24.730;2023-04-25T10:32:58;146558.38;;;20.12;61.61
5877;BME280;2964;42.144;24.730;2023-04-25T10:35:27;146643.19;;;20.46;60.38
5877;BME280;2964;42.144;24.730;2023-04-25T10:37:58;146672.28;;;20.58;60.17
5877;BME280;2964;42.144;24.730;2023-04-25T10:40:25;146709.00;;;20.73;59.42
5877;BME280;2964;42.144;24.730;2023-04-25T10:42:53;146740.66;;;20.86;59.21
5877;BME280;2964;42.144;24.730;2023-04-25T10:45:20;146697.66;;;20.68;60.75
5877;BME280;2964;42.144;24.730;2023-04-25T10:47:47;146690.03;;;20.65;59.42
5877;BME280;2964;42.144;24.730;2023-04-25T10:50:14;146749.53;;;20.89;56.55
5877;BME280;2964;42.144;24.730;2023-04-25T10:52:41;146706.50;;;20.72;55.91
5877;BME280;2964;42.144;24.730;2023-04-25T10:55:08;146736.84;;;20.84;55.24
5877;BME280;2964;42.144;24.730;2023-04-25T10:57:40;146681.19;;;20.61;54.97
5877;BME280;2964;42.144;24.730;2023-04-25T11:00:11;146683.72;;;20.62;55.41
5877;BME280;2964;42.144;24.730;2023-04-25T11:02:44;146691.28;;;20.66;56.27
5877;BME280;2964;42.144;24.730;2023-04-25T11:05:20;146485.03;;;19.82;57.92
5877;BME280;2964;42.144;24.730;2023-04-25T11:07:50;146550.81;;;20.09;56.88
5877;BME280;2964;42.144;24.730;2023-04-25T11:10:18;146559.69;;;20.12;57.92
5877;BME280;2964;42.144;24.730;2023-04-25T11:12:45;146552.09;;;20.09;57.59
5877;BME280;2964;42.144;24.730;2023-04-25T11:15:14;146460.97;;;19.72;55.79
5877;BME280;2964;42.144;24.730;2023-04-25T11:17:41;146530.56;;;20.00;58.23
5877;BME280;2964;42.144;24.730;2023-04-25T11:20:08;146481.22;;;19.80;56.09
5877;BME280;2964;42.144;24.730;2023-04-25T11:22:37;146567.25;;;20.15;56.05
5877;BME280;2964;42.144;24.730;2023-04-25T11:25:05;146629.25;;;20.40;56.47
5877;BME280;2964;42.144;24.730;2023-04-25T11:27:32;146741.97;;;20.86;56.14
5877;BME280;2964;42.144;24.730;2023-04-25T11:30:10;146803.97;;;21.11;54.65
5877;BME280;2964;42.144;24.730;2023-04-25T11:32:39;146847.03;;;21.29;52.65
5877;BME280;2964;42.144;24.730;2023-04-25T11:35:06;146855.91;;;21.32;53.57
5877;BME280;2964;42.144;24.730;2023-04-25T11:37:33;146847.03;;;21.29;51.80
5877;BME280;2964;42.144;24.730;2023-04-25T11:40:00;146869.84;;;21.38;50.50
5877;BME280;2964;42.144;24.730;2023-04-25T11:42:27;146899.00;;;21.50;49.92
5877;BME280;2964;42.144;24.730;2023-04-25T11:44:54;146919.28;;;21.58;49.73
5877;BME280;2964;42.144;24.730;2023-04-25T11:47:28;146975.00;;;21.81;49.12
5877;BME280;2964;42.144;24.730;2023-04-25T11:49:57;146983.88;;;21.84;54.13
5877;BME280;2964;42.144;24.730;2023-04-25T11:52:24;146990.19;;;21.87;54.57
5877;BME280;2964;42.144;24.730;2023-04-25T11:54:51;146912.91;;;21.55;55.99
5877;BME280;2964;42.144;24.730;2023-04-25T11:57:19;146975.00;;;21.81;55.55
5877;BME280;2964;42.144;24.730;2023-04-25T11:59:45;146893.94;;;21.48;56.18
5877;BME280;2964;42.144;24.730;2023-04-25T12:02:24;146825.50;;;21.20;56.01
5877;BME280;2964;42.144;24.730;2023-04-25T12:04:50;146653.28;;;20.50;58.14
5877;BME280;2964;42.144;24.730;2023-04-25T12:07:18;146686.25;;;20.63;58.72
5877;BME280;2964;42.144;24.730;2023-04-25T12:09:51;146654.53;;;20.51;58.44
5877;BME280;2964;42.144;24.730;2023-04-25T12:12:18;146645.69;;;20.47;59.31
5877;BME280;2964;42.144;24.730;2023-04-25T12:14:46;146665.97;;;20.55;59.57
5877;BME280;2964;42.144;24.730;2023-04-25T12:17:14;146645.69;;;20.47;59.67
5877;BME280;2964;42.144;24.730;2023-04-25T12:19:40;146612.78;;;20.34;59.85
5877;BME280;2964;42.144;24.730;2023-04-25T12:22:21;146602.69;;;20.30;59.21
5877;BME280;2964;42.144;24.730;2023-04-25T12:24:48;146653.28;;;20.50;58.92
5877;BME280;2964;42.144;24.730;2023-04-25T12:27:16;146648.22;;;20.48;58.53
5877;BME280;2964;42.144;24.730;2023-04-25T12:29:50;146653.28;;;20.50;57.86
5877;BME280;2964;42.144;24.730;2023-04-25T12:32:17;146634.31;;;20.42;58.90
5877;BME280;2964;42.144;24.730;2023-04-25T12:34:44;146690.03;;;20.65;58.53
5877;BME280;2964;42.144;24.730;2023-04-25T12:37:11;146620.41;;;20.37;58.84
5877;BME280;2964;42.144;24.730;2023-04-25T12:39:39;146634.31;;;20.42;58.93
5877;BME280;2964;42.144;24.730;2023-04-25T12:42:06;146602.69;;;20.30;59.16
5877;BME280;2964;42.144;24.730;2023-04-25T12:44:37;146663.41;;;20.54;58.44
5877;BME280;2964;42.144;24.730;2023-04-25T12:47:04;146578.66;;;20.20;59.65
5877;BME280;2964;42.144;24.730;2023-04-25T12:49:31;146687.53;;;20.64;58.26
5877;BME280;2964;42.144;24.730;2023-04-25T12:51:58;146687.53;;;20.64;57.96
5877;BME280;2964;42.144;24.730;2023-04-25T12:54:25;146725.50;;;20.79;58.62
5877;BME280;2964;42.144;24.730;2023-04-25T12:56:53;146763.44;;;20.95;58.32